sensor_id;sensor_type;location;lat;lon;timestamp;temperature;humidity
31661;DHT22;18267;52.234;7.444;2023-02-04T00:00:07;7.10;99.90
31661;DHT22;18267;52.234;7.444;2023-02-04T00:02:35;7.00;99.90
31661;DHT22;18267;52.234;7.444;2023-02-04T00:05:02;7.00;99.90
31661;DHT22;18267;52.234;7.444;2023-02-04T00:07:28;7.00;99.90
31661;DHT22;18267;52.234;7.444;2023-02-04T00:09:53;7.00;99.90
31661;DHT22;18267;52.234;7.444;2023-02-04T00:12:19;7.00;99.90
31661;DHT22;18267;52.234;7.444;2023-02-04T00:14:44;7.10;99.90
31661;DHT22;18267;52.234;7.444;2023-02-04T00:17:10;7.10;99.90
31661;DHT22;18267;52.234;7.444;2023-02-04T00:19:38;7.10;99.90
31661;DHT22;18267;52.234;7.444;2023-02-04T00:22:03;7.20;99.90
31661;DHT22;18267;52.234;7.444;2023-02-04T00:24:29;7.30;99.90
31661;DHT22;18267;52.234;7.444;2023-02-04T00:26:55;7.30;99.90
31661;DHT22;18267;52.234;7.444;2023-02-04T00:29:21;7.30;99.90
31661;DHT22;18267;52.234;7.444;2023-02-04T00:31:47;7.10;99.90
31661;DHT22;18267;52.234;7.444;2023-02-04T00:34:12;7.10;99.90
31661;DHT22;18267;52.234;7.444;2023-02-04T00:36:38;7.10;99.90
31661;DHT22;18267;52.234;7.444;2023-02-04T00:39:03;7.10;99.90
31661;DHT22;18267;52.234;7.444;2023-02-04T00:41:29;7.10;99.90
31661;DHT22;18267;52.234;7.444;2023-02-04T00:43:54;7.10;99.90
31661;DHT22;18267;52.234;7.444;2023-02-04T00:46:20;7.10;99.90
31661;DHT22;18267;52.234;7.444;2023-02-04T00:48:45;7.20;99.90
31661;DHT22;18267;52.234;7.444;2023-02-04T00:51:11;7.20;99.90
31661;DHT22;18267;52.234;7.444;2023-02-04T00:53:36;7.20;99.90
31661;DHT22;18267;52.234;7.444;2023-02-04T00:56:02;7.10;99.90
31661;DHT22;18267;52.234;7.444;2023-02-04T00:58:27;7.10;99.90
31661;DHT22;18267;52.234;7.444;2023-02-04T01:00:53;7.10;99.90
31661;DHT22;18267;52.234;7.444;2023-02-04T01:03:18;7.20;99.90
31661;DHT22;18267;52.234;7.444;2023-02-04T01:05:44;7.30;99.90
31661;DHT22;18267;52.234;7.444;2023-02-04T01:08:10;7.40;99.90
31661;DHT22;18267;52.234;7.444;2023-02-04T01:10:35;7.40;99.90
31661;DHT22;18267;52.234;7.444;2023-02-04T01:13:01;7.40;99.90
31661;DHT22;18267;52.234;7.444;2023-02-04T01:15:26;7.50;99.90
31661;DHT22;18267;52.234;7.444;2023-02-04T01:17:52;7.30;99.90
31661;DHT22;18267;52.234;7.444;2023-02-04T01:20:18;7.40;99.90
31661;DHT22;18267;52.234;7.444;2023-02-04T01:22:43;7.40;99.90
31661;DHT22;18267;52.234;7.444;2023-02-04T01:25:09;7.40;99.90
31661;DHT22;18267;52.234;7.444;2023-02-04T01:27:34;7.40;99.90
31661;DHT22;18267;52.234;7.444;2023-02-04T01:30:00;7.20;99.90
31661;DHT22;18267;52.234;7.444;2023-02-04T01:32:25;7.20;99.90
31661;DHT22;18267;52.234;7.444;2023-02-04T01:34:51;7.30;99.90
31661;DHT22;18267;52.234;7.444;2023-02-04T01:37:16;7.30;99.90
31661;DHT22;18267;52.234;7.444;2023-02-04T01:39:42;7.30;99.90
31661;DHT22;18267;52.234;7.444;2023-02-04T01:42:08;7.30;99.90
31661;DHT22;18267;52.234;7.444;2023-02-04T01:44:34;7.30;99.90
31661;DHT22;18267;52.234;7.444;2023-02-04T01:46:59;7.30;99.90
31661;DHT22;18267;52.234;7.444;2023-02-04T01:49:25;7.20;99.90
31661;DHT22;18267;52.234;7.444;2023-02-04T01:51:51;7.20;99.90
31661;DHT22;18267;52.234;7.444;2023-02-04T01:54:17;7.10;99.90
31661;DHT22;18267;52.234;7.444;2023-02-04T01:56:45;7.10;99.90
31661;DHT22;18267;52.234;7.444;2023-02-04T01:59:12;7.10;99.90
31661;DHT22;18267;52.234;7.444;2023-02-04T02:01:45;7.10;99.90
31661;DHT22;18267;52.234;7.444;2023-02-04T02:04:21;7.10;99.90
31661;DHT22;18267;52.234;7.444;2023-02-04T02:06:51;7.00;99.90
31661;DHT22;18267;52.234;7.444;2023-02-04T02:09:18;7.00;99.90
31661;DHT22;18267;52.234;7.444;2023-02-04T02:11:44;7.00;99.90
31661;DHT22;18267;52.234;7.444;2023-02-04T02:14:10;7.10;99.90
31661;DHT22;18267;52.234;7.444;2023-02-04T02:16:35;7.20;99.90
31661;DHT22;18267;52.234;7.444;2023-02-04T02:19:01;7.30;99.90
31661;DHT22;18267;52.234;7.444;2023-02-04T02:24:25;7.30;99.90
31661;DHT22;18267;52.234;7.444;2023-02-04T02:26:53;7.40;99.90
31661;DHT22;18267;52.234;7.444;2023-02-04T02:29:19;7.20;99.90
31661;DHT22;18267;52.234;7.444;2023-02-04T02:31:45;7.20;99.90
31661;DHT22;18267;52.234;7.444;2023-02-04T02:34:10;7.20;99.90
31661;DHT22;18267;52.234;7.444;2023-02-04T02:36:36;7.20;99.90
31661;DHT22;18267;52.234;7.444;2023-02-04T02:39:02;7.20;99.90
31661;DHT22;18267;52.234;7.444;2023-02-04T02:41:27;7.30;99.90
31661;DHT22;18267;52.234;7.444;2023-02-04T02:43:53;7.30;99.90
31661;DHT22;18267;52.234;7.444;2023-02-04T02:46:18;7.30;99.90
31661;DHT22;18267;52.234;7.444;2023-02-04T02:48:44;7.20;99.90
31661;DHT22;18267;52.234;7.444;2023-02-04T02:51:10;7.20;99.90
31661;DHT22;18267;52.234;7.444;2023-02-04T02:53:35;7.20;99.90
31661;DHT22;18267;52.234;7.444;2023-02-04T02:56:01;7.20;99.90
31661;DHT22;18267;52.234;7.444;2023-02-04T02:58:31;7.30;99.90
31661;DHT22;18267;52.234;7.444;2023-02-04T03:00:58;7.30;99.90
31661;DHT22;18267;52.234;7.444;2023-02-04T03:03:27;7.30;99.90
31661;DHT22;18267;52.234;7.444;2023-02-04T03:05:58;7.30;99.90
31661;DHT22;18267;52.234;7.444;2023-02-04T03:08:25;7.30;99.90
31661;DHT22;18267;52.234;7.444;2023-02-04T03:10:51;7.30;99.90
31661;DHT22;18267;52.234;7.444;2023-02-04T03:13:17;7.20;99.90
31661;DHT22;18267;52.234;7.444;2023-02-04T03:15:44;7.30;99.90
31661;DHT22;18267;52.234;7.444;2023-02-04T03:18:13;7.30;99.90
31661;DHT22;18267;52.234;7.444;2023-02-04T03:20:40;7.30;99.90
31661;DHT22;18267;52.234;7.444;2023-02-04T03:23:06;7.20;99.90
31661;DHT22;18267;52.234;7.444;2023-02-04T03:25:32;7.10;99.90
31661;DHT22;18267;52.234;7.444;2023-02-04T03:27:58;7.10;99.90
31661;DHT22;18267;52.234;7.444;2023-02-04T03:30:24;7.00;99.90
31661;DHT22;18267;52.234;7.444;2023-02-04T03:32:51;7.00;99.90
31661;DHT22;18267;52.234;7.444;2023-02-04T03:35:17;7.00;99.90
31661;DHT22;18267;52.234;7.444;2023-02-04T03:37:42;7.00;99.90
31661;DHT22;18267;52.234;7.444;2023-02-04T03:40:09;7.00;99.90
31661;DHT22;18267;52.234;7.444;2023-02-04T03:42:35;7.10;99.90
31661;DHT22;18267;52.234;7.444;2023-02-04T03:45:00;7.10;99.90
31661;DHT22;18267;52.234;7.444;2023-02-04T03:47:26;7.10;99.90
31661;DHT22;18267;52.234;7.444;2023-02-04T03:49:52;7.10;99.90
31661;DHT22;18267;52.234;7.444;2023-02-04T03:52:17;7.10;99.90
31661;DHT22;18267;52.234;7.444;2023-02-04T03:54:44;7.10;99.90
31661;DHT22;18267;52.234;7.444;2023-02-04T03:57:10;7.00;99.90
31661;DHT22;18267;52.234;7.444;2023-02-04T03:59:36;7.10;99.90
31661;DHT22;18267;52.234;7.444;2023-02-04T04:02:01;7.20;99.90
31661;DHT22;18267;52.234;7.444;2023-02-04T04:04:27;7.30;99.90
31661;DHT22;18267;52.234;7.444;2023-02-04T04:06:52;7.30;99.90
31661;DHT22;18267;52.234;7.444;2023-02-04T04:09:18;7.30;99.90
31661;DHT22;18267;52.234;7.444;2023-02-04T04:11:44;7.30;99.90
31661;DHT22;18267;52.234;7.444;2023-02-04T04:14:09;7.40;99.90
31661;DHT22;18267;52.234;7.444;2023-02-04T04:16:35;7.40;99.90
31661;DHT22;18267;52.234;7.444;2023-02-04T04:19:00;7.50;99.90
31661;DHT22;18267;52.234;7.444;2023-02-04T04:21:26;7.50;99.90
31661;DHT22;18267;52.234;7.444;2023-02-04T04:23:51;7.50;99.90
31661;DHT22;18267;52.234;7.444;2023-02-04T04:26:17;7.40;99.90
31661;DHT22;18267;52.234;7.444;2023-02-04T04:28:43;7.40;99.90
31661;DHT22;18267;52.234;7.444;2023-02-04T04:31:08;7.40;99.90
31661;DHT22;18267;52.234;7.444;2023-02-04T04:33:34;7.30;99.90
31661;DHT22;18267;52.234;7.444;2023-02-04T04:35:59;7.20;99.90
31661;DHT22;18267;52.234;7.444;2023-02-04T04:38:25;7.10;99.90
31661;DHT22;18267;52.234;7.444;2023-02-04T04:40:50;7.20;99.90
31661;DHT22;18267;52.234;7.444;2023-02-04T04:43:16;7.20;99.90
31661;DHT22;18267;52.234;7.444;2023-02-04T04:45:42;7.30;99.90
31661;DHT22;18267;52.234;7.444;2023-02-04T04:48:07;7.30;99.90
31661;DHT22;18267;52.234;7.444;2023-02-04T04:50:33;7.30;99.90
31661;DHT22;18267;52.234;7.444;2023-02-04T04:52:58;7.20;99.90
31661;DHT22;18267;52.234;7.444;2023-02-04T04:55:24;7.40;99.90
31661;DHT22;18267;52.234;7.444;2023-02-04T04:57:50;7.40;99.90
31661;DHT22;18267;52.234;7.444;2023-02-04T05:00:17;7.30;99.90
31661;DHT22;18267;52.234;7.444;2023-02-04T05:02:44;7.30;99.90
31661;DHT22;18267;52.234;7.444;2023-02-04T05:05:10;7.40;99.90
31661;DHT22;18267;52.234;7.444;2023-02-04T05:07:36;7.50;99.90
31661;DHT22;18267;52.234;7.444;2023-02-04T05:10:02;7.50;99.90
31661;DHT22;18267;52.234;7.444;2023-02-04T05:12:28;7.60;99.90
31661;DHT22;18267;52.234;7.444;2023-02-04T05:14:53;7.70;99.90
31661;DHT22;18267;52.234;7.444;2023-02-04T05:17:19;7.60;99.90
31661;DHT22;18267;52.234;7.444;2023-02-04T05:19:44;7.50;99.90
31661;DHT22;18267;52.234;7.444;2023-02-04T05:22:10;7.50;99.90
31661;DHT22;18267;52.234;7.444;2023-02-04T05:24:35;7.60;99.90
31661;DHT22;18267;52.234;7.444;2023-02-04T05:27:01;7.50;99.90
31661;DHT22;18267;52.234;7.444;2023-02-04T05:29:27;7.40;99.90
31661;DHT22;18267;52.234;7.444;2023-02-04T05:31:52;7.30;99.90
31661;DHT22;18267;52.234;7.444;2023-02-04T05:34:18;7.30;99.90
31661;DHT22;18267;52.234;7.444;2023-02-04T05:36:43;7.30;99.90
31661;DHT22;18267;52.234;7.444;2023-02-04T05:39:09;7.40;99.90
31661;DHT22;18267;52.234;7.444;2023-02-04T05:41:34;7.50;99.90
31661;DHT22;18267;52.234;7.444;2023-02-04T05:44:00;7.50;99.90
31661;DHT22;18267;52.234;7.444;2023-02-04T05:46:25;7.60;99.90
31661;DHT22;18267;52.234;7.444;2023-02-04T05:48:51;7.60;99.90
31661;DHT22;18267;52.234;7.444;2023-02-04T05:51:16;7.60;99.90
31661;DHT22;18267;52.234;7.444;2023-02-04T05:53:42;7.60;99.90
31661;DHT22;18267;52.234;7.444;2023-02-04T05:56:07;7.50;99.90
31661;DHT22;18267;52.234;7.444;2023-02-04T05:58:33;7.60;99.90
31661;DHT22;18267;52.234;7.444;2023-02-04T06:01:00;7.70;99.90
31661;DHT22;18267;52.234;7.444;2023-02-04T06:03:26;7.60;99.90
31661;DHT22;18267;52.234;7.444;2023-02-04T06:05:51;7.70;99.90
31661;DHT22;18267;52.234;7.444;2023-02-04T06:08:17;7.60;99.90
31661;DHT22;18267;52.234;7.444;2023-02-04T06:10:43;7.60;99.90
31661;DHT22;18267;52.234;7.444;2023-02-04T06:13:08;7.50;99.90
31661;DHT22;18267;52.234;7.444;2023-02-04T06:15:34;7.50;99.90
31661;DHT22;18267;52.234;7.444;2023-02-04T06:17:59;7.60;99.90
31661;DHT22;18267;52.234;7.444;2023-02-04T06:20:25;7.60;99.90
31661;DHT22;18267;52.234;7.444;2023-02-04T06:22:50;7.60;99.90
31661;DHT22;18267;52.234;7.444;2023-02-04T06:25:17;7.70;99.90
31661;DHT22;18267;52.234;7.444;2023-02-04T06:27:43;7.80;99.90
31661;DHT22;18267;52.234;7.444;2023-02-04T06:30:09;7.70;99.90
31661;DHT22;18267;52.234;7.444;2023-02-04T06:32:35;7.80;99.90
31661;DHT22;18267;52.234;7.444;2023-02-04T06:35:01;7.80;99.90
31661;DHT22;18267;52.234;7.444;2023-02-04T06:37:26;7.80;99.90
31661;DHT22;18267;52.234;7.444;2023-02-04T06:39:52;7.60;99.90
31661;DHT22;18267;52.234;7.444;2023-02-04T06:42:19;7.70;99.90
31661;DHT22;18267;52.234;7.444;2023-02-04T06:44:44;7.70;99.90
31661;DHT22;18267;52.234;7.444;2023-02-04T06:47:10;7.70;99.90
31661;DHT22;18267;52.234;7.444;2023-02-04T06:49:36;7.70;99.90
31661;DHT22;18267;52.234;7.444;2023-02-04T06:52:01;7.80;99.90
31661;DHT22;18267;52.234;7.444;2023-02-04T06:54:27;7.90;99.90
31661;DHT22;18267;52.234;7.444;2023-02-04T06:56:52;7.80;99.90
31661;DHT22;18267;52.234;7.444;2023-02-04T06:59:18;7.80;99.90
31661;DHT22;18267;52.234;7.444;2023-02-04T07:01:44;7.90;99.90
31661;DHT22;18267;52.234;7.444;2023-02-04T07:04:09;7.70;99.90
31661;DHT22;18267;52.234;7.444;2023-02-04T07:06:35;7.80;99.90
31661;DHT22;18267;52.234;7.444;2023-02-04T07:09:00;7.80;99.90
31661;DHT22;18267;52.234;7.444;2023-02-04T07:11:26;7.70;99.90
31661;DHT22;18267;52.234;7.444;2023-02-04T07:13:51;7.60;99.90
31661;DHT22;18267;52.234;7.444;2023-02-04T07:16:17;7.50;99.90
31661;DHT22;18267;52.234;7.444;2023-02-04T07:18:42;7.40;99.90
31661;DHT22;18267;52.234;7.444;2023-02-04T07:21:08;7.50;99.90
31661;DHT22;18267;52.234;7.444;2023-02-04T07:23:33;7.50;99.90
31661;DHT22;18267;52.234;7.444;2023-02-04T07:25:59;7.70;99.90
31661;DHT22;18267;52.234;7.444;2023-02-04T07:28:25;7.80;99.90
31661;DHT22;18267;52.234;7.444;2023-02-04T07:30:50;7.80;99.90
31661;DHT22;18267;52.234;7.444;2023-02-04T07:33:16;7.70;99.90
31661;DHT22;18267;52.234;7.444;2023-02-04T07:35:42;7.60;99.90
31661;DHT22;18267;52.234;7.444;2023-02-04T07:38:08;7.50;99.90
31661;DHT22;18267;52.234;7.444;2023-02-04T07:40:34;7.50;99.90
31661;DHT22;18267;52.234;7.444;2023-02-04T07:43:00;7.60;99.90
31661;DHT22;18267;52.234;7.444;2023-02-04T07:45:25;7.50;99.90
31661;DHT22;18267;52.234;7.444;2023-02-04T07:47:51;7.50;99.90
31661;DHT22;18267;52.234;7.444;2023-02-04T07:50:16;7.50;99.90
31661;DHT22;18267;52.234;7.444;2023-02-04T07:52:42;7.50;99.90
31661;DHT22;18267;52.234;7.444;2023-02-04T07:55:08;7.50;99.90
31661;DHT22;18267;52.234;7.444;2023-02-04T07:57:34;7.50;99.90
31661;DHT22;18267;52.234;7.444;2023-02-04T07:59:59;7.40;99.90
31661;DHT22;18267;52.234;7.444;2023-02-04T08:02:25;7.30;99.90
31661;DHT22;18267;52.234;7.444;2023-02-04T08:04:51;7.40;99.90
31661;DHT22;18267;52.234;7.444;2023-02-04T08:07:16;7.40;99.90
31661;DHT22;18267;52.234;7.444;2023-02-04T08:09:42;7.40;99.90
31661;DHT22;18267;52.234;7.444;2023-02-04T08:12:07;7.40;99.90
31661;DHT22;18267;52.234;7.444;2023-02-04T08:14:33;7.40;99.90
31661;DHT22;18267;52.234;7.444;2023-02-04T08:16:58;7.40;99.90
31661;DHT22;18267;52.234;7.444;2023-02-04T08:19:24;7.50;99.90
31661;DHT22;18267;52.234;7.444;2023-02-04T08:21:50;7.40;99.90
31661;DHT22;18267;52.234;7.444;2023-02-04T08:24:15;7.50;99.90
31661;DHT22;18267;52.234;7.444;2023-02-04T08:26:42;7.40;99.90
31661;DHT22;18267;52.234;7.444;2023-02-04T08:29:08;7.50;99.90
31661;DHT22;18267;52.234;7.444;2023-02-04T08:31:35;7.50;99.90
31661;DHT22;18267;52.234;7.444;2023-02-04T08:34:04;7.60;99.90
31661;DHT22;18267;52.234;7.444;2023-02-04T08:36:30;7.60;99.90
31661;DHT22;18267;52.234;7.444;2023-02-04T08:38:55;7.60;99.90
31661;DHT22;18267;52.234;7.444;2023-02-04T08:41:21;7.60;99.90
31661;DHT22;18267;52.234;7.444;2023-02-04T08:43:46;7.60;99.90
31661;DHT22;18267;52.234;7.444;2023-02-04T08:46:12;7.60;99.90
31661;DHT22;18267;52.234;7.444;2023-02-04T08:48:38;7.60;99.90
31661;DHT22;18267;52.234;7.444;2023-02-04T08:51:03;7.50;99.90
31661;DHT22;18267;52.234;7.444;2023-02-04T08:53:29;7.50;99.90
31661;DHT22;18267;52.234;7.444;2023-02-04T08:55:55;7.60;99.90
31661;DHT22;18267;52.234;7.444;2023-02-04T08:58:20;7.70;99.90
31661;DHT22;18267;52.234;7.444;2023-02-04T09:00:46;7.70;99.90
31661;DHT22;18267;52.234;7.444;2023-02-04T09:03:12;7.70;99.90
31661;DHT22;18267;52.234;7.444;2023-02-04T09:05:38;7.80;99.90
31661;DHT22;18267;52.234;7.444;2023-02-04T09:08:03;7.90;99.90
31661;DHT22;18267;52.234;7.444;2023-02-04T09:10:29;7.90;99.90
31661;DHT22;18267;52.234;7.444;2023-02-04T09:12:54;8.00;99.90
31661;DHT22;18267;52.234;7.444;2023-02-04T09:15:24;8.10;99.90
31661;DHT22;18267;52.234;7.444;2023-02-04T09:17:51;8.20;99.90
31661;DHT22;18267;52.234;7.444;2023-02-04T09:20:19;8.10;99.90
31661;DHT22;18267;52.234;7.444;2023-02-04T09:22:46;8.10;99.90
31661;DHT22;18267;52.234;7.444;2023-02-04T09:25:12;8.20;99.90
31661;DHT22;18267;52.234;7.444;2023-02-04T09:27:38;8.30;99.90
31661;DHT22;18267;52.234;7.444;2023-02-04T09:30:04;8.30;99.90
31661;DHT22;18267;52.234;7.444;2023-02-04T09:32:30;8.40;99.90
31661;DHT22;18267;52.234;7.444;2023-02-04T09:34:55;8.40;99.90
31661;DHT22;18267;52.234;7.444;2023-02-04T09:37:21;8.40;99.90
31661;DHT22;18267;52.234;7.444;2023-02-04T09:39:48;8.40;99.90
31661;DHT22;18267;52.234;7.444;2023-02-04T09:42:15;8.30;99.90
31661;DHT22;18267;52.234;7.444;2023-02-04T09:44:41;8.30;99.90
31661;DHT22;18267;52.234;7.444;2023-02-04T09:47:10;8.40;99.90
31661;DHT22;18267;52.234;7.444;2023-02-04T09:49:37;8.60;99.90
31661;DHT22;18267;52.234;7.444;2023-02-04T09:52:02;8.60;99.90
31661;DHT22;18267;52.234;7.444;2023-02-04T09:54:28;8.60;99.90
31661;DHT22;18267;52.234;7.444;2023-02-04T09:56:53;8.70;99.90
31661;DHT22;18267;52.234;7.444;2023-02-04T09:59:21;8.70;99.90
31661;DHT22;18267;52.234;7.444;2023-02-04T10:01:55;8.80;99.90
31661;DHT22;18267;52.234;7.444;2023-02-04T10:04:22;8.90;99.90
31661;DHT22;18267;52.234;7.444;2023-02-04T10:06:48;8.90;99.90
31661;DHT22;18267;52.234;7.444;2023-02-04T10:09:15;8.90;99.90
31661;DHT22;18267;52.234;7.444;2023-02-04T10:11:43;8.80;99.90
31661;DHT22;18267;52.234;7.444;2023-02-04T10:14:20;8.70;99.90
31661;DHT22;18267;52.234;7.444;2023-02-04T10:16:54;8.60;99.90
31661;DHT22;18267;52.234;7.444;2023-02-04T10:19:20;8.60;99.90
31661;DHT22;18267;52.234;7.444;2023-02-04T10:21:46;8.50;99.90
31661;DHT22;18267;52.234;7.444;2023-02-04T10:24:22;8.60;99.90
31661;DHT22;18267;52.234;7.444;2023-02-04T10:26:52;8.60;99.90
31661;DHT22;18267;52.234;7.444;2023-02-04T10:29:21;8.60;99.90
31661;DHT22;18267;52.234;7.444;2023-02-04T10:31:49;8.70;99.90
31661;DHT22;18267;52.234;7.444;2023-02-04T10:34:21;8.70;99.90
31661;DHT22;18267;52.234;7.444;2023-02-04T10:36:52;8.70;99.90
31661;DHT22;18267;52.234;7.444;2023-02-04T10:39:20;8.80;99.90
31661;DHT22;18267;52.234;7.444;2023-02-04T10:44:15;8.80;99.90
31661;DHT22;18267;52.234;7.444;2023-02-04T10:46:41;8.80;99.90
31661;DHT22;18267;52.234;7.444;2023-02-04T10:49:23;8.90;99.90
31661;DHT22;18267;52.234;7.444;2023-02-04T10:51:50;8.90;99.90
31661;DHT22;18267;52.234;7.444;2023-02-04T10:54:19;8.90;99.90
31661;DHT22;18267;52.234;7.444;2023-02-04T10:56:58;9.00;99.90
31661;DHT22;18267;52.234;7.444;2023-02-04T10:59:25;9.00;99.90
31661;DHT22;18267;52.234;7.444;2023-02-04T11:01:58;9.10;99.90
31661;DHT22;18267;52.234;7.444;2023-02-04T11:04:25;9.20;99.90
31661;DHT22;18267;52.234;7.444;2023-02-04T11:06:51;9.20;99.90
31661;DHT22;18267;52.234;7.444;2023-02-04T11:09:18;9.30;99.90
31661;DHT22;18267;52.234;7.444;2023-02-04T11:11:45;9.40;99.90
31661;DHT22;18267;52.234;7.444;2023-02-04T11:14:29;9.40;99.90
31661;DHT22;18267;52.234;7.444;2023-02-04T11:16:56;9.30;99.90
31661;DHT22;18267;52.234;7.444;2023-02-04T11:19:37;9.20;99.90
31661;DHT22;18267;52.234;7.444;2023-02-04T11:22:50;9.00;99.90
31661;DHT22;18267;52.234;7.444;2023-02-04T11:24:50;9.00;99.90
31661;DHT22;18267;52.234;7.444;2023-02-04T11:27:24;8.90;99.90
31661;DHT22;18267;52.234;7.444;2023-02-04T11:29:51;8.90;99.90
31661;DHT22;18267;52.234;7.444;2023-02-04T11:32:31;8.90;99.90
31661;DHT22;18267;52.234;7.444;2023-02-04T11:35:20;8.80;99.90
31661;DHT22;18267;52.234;7.444;2023-02-04T11:37:46;8.90;99.90
31661;DHT22;18267;52.234;7.444;2023-02-04T11:40:30;8.70;99.90
31661;DHT22;18267;52.234;7.444;2023-02-04T11:43:08;8.80;99.90
31661;DHT22;18267;52.234;7.444;2023-02-04T11:45:36;8.90;99.90
31661;DHT22;18267;52.234;7.444;2023-02-04T11:48:14;8.90;99.90
31661;DHT22;18267;52.234;7.444;2023-02-04T11:50:40;8.80;99.90
31661;DHT22;18267;52.234;7.444;2023-02-04T11:53:09;8.70;99.90
31661;DHT22;18267;52.234;7.444;2023-02-04T11:55:41;8.80;99.90
31661;DHT22;18267;52.234;7.444;2023-02-04T11:58:14;8.90;99.90
31661;DHT22;18267;52.234;7.444;2023-02-04T12:00:40;9.00;99.90
31661;DHT22;18267;52.234;7.444;2023-02-04T12:05:52;9.40;99.90
31661;DHT22;18267;52.234;7.444;2023-02-04T12:10:58;9.60;99.90
31661;DHT22;18267;52.234;7.444;2023-02-04T12:13:25;9.60;99.90
31661;DHT22;18267;52.234;7.444;2023-02-04T12:15:58;9.60;99.90
31661;DHT22;18267;52.234;7.444;2023-02-04T12:18:24;9.30;99.90
31661;DHT22;18267;52.234;7.444;2023-02-04T12:20:53;9.20;99.90
31661;DHT22;18267;52.234;7.444;2023-02-04T12:23:18;9.30;99.90
31661;DHT22;18267;52.234;7.444;2023-02-04T12:25:44;9.40;99.90
31661;DHT22;18267;52.234;7.444;2023-02-04T12:28:09;9.40;99.90
31661;DHT22;18267;52.234;7.444;2023-02-04T12:30:35;9.50;99.90
31661;DHT22;18267;52.234;7.444;2023-02-04T12:33:01;9.50;99.90
31661;DHT22;18267;52.234;7.444;2023-02-04T12:35:26;9.50;99.90
31661;DHT22;18267;52.234;7.444;2023-02-04T12:37:52;9.30;99.90
31661;DHT22;18267;52.234;7.444;2023-02-04T12:40:21;9.30;99.90
31661;DHT22;18267;52.234;7.444;2023-02-04T12:42:47;9.40;99.90
31661;DHT22;18267;52.234;7.444;2023-02-04T12:45:14;9.30;99.90
31661;DHT22;18267;52.234;7.444;2023-02-04T12:47:40;9.30;99.90
31661;DHT22;18267;52.234;7.444;2023-02-04T12:50:08;9.30;99.90
31661;DHT22;18267;52.234;7.444;2023-02-04T12:52:34;9.20;99.90
31661;DHT22;18267;52.234;7.444;2023-02-04T12:55:02;9.10;99.90
31661;DHT22;18267;52.234;7.444;2023-02-04T12:57:30;9.00;99.90
31661;DHT22;18267;52.234;7.444;2023-02-04T12:59:55;9.10;99.90
31661;DHT22;18267;52.234;7.444;2023-02-04T13:02:24;9.20;99.90
31661;DHT22;18267;52.234;7.444;2023-02-04T13:04:50;9.30;99.90
31661;DHT22;18267;52.234;7.444;2023-02-04T13:07:16;9.40;99.90
31661;DHT22;18267;52.234;7.444;2023-02-04T13:09:41;9.50;99.90
31661;DHT22;18267;52.234;7.444;2023-02-04T13:12:07;9.50;99.90
31661;DHT22;18267;52.234;7.444;2023-02-04T13:14:32;9.40;99.90
31661;DHT22;18267;52.234;7.444;2023-02-04T13:16:59;9.40;99.90
31661;DHT22;18267;52.234;7.444;2023-02-04T13:19:24;9.40;99.90
31661;DHT22;18267;52.234;7.444;2023-02-04T13:21:50;9.50;99.90
31661;DHT22;18267;52.234;7.444;2023-02-04T13:24:15;9.40;99.90
31661;DHT22;18267;52.234;7.444;2023-02-04T13:26:41;9.50;99.90
31661;DHT22;18267;52.234;7.444;2023-02-04T13:29:07;9.50;99.90
31661;DHT22;18267;52.234;7.444;2023-02-04T13:31:33;9.70;99.90
31661;DHT22;18267;52.234;7.444;2023-02-04T13:33:58;9.70;99.90
31661;DHT22;18267;52.234;7.444;2023-02-04T13:36:24;9.60;99.90
31661;DHT22;18267;52.234;7.444;2023-02-04T13:38:52;9.50;99.90
31661;DHT22;18267;52.234;7.444;2023-02-04T13:41:17;9.60;99.90
31661;DHT22;18267;52.234;7.444;2023-02-04T13:43:43;9.50;99.90
31661;DHT22;18267;52.234;7.444;2023-02-04T13:46:08;9.60;99.90
31661;DHT22;18267;52.234;7.444;2023-02-04T13:48:34;9.50;99.90
31661;DHT22;18267;52.234;7.444;2023-02-04T13:50:59;9.60;99.90
31661;DHT22;18267;52.234;7.444;2023-02-04T13:53:25;9.60;99.90
31661;DHT22;18267;52.234;7.444;2023-02-04T13:55:56;9.60;99.90
31661;DHT22;18267;52.234;7.444;2023-02-04T13:58:22;9.60;99.90
31661;DHT22;18267;52.234;7.444;2023-02-04T14:00:47;9.60;99.90
31661;DHT22;18267;52.234;7.444;2023-02-04T14:03:13;9.60;99.90
31661;DHT22;18267;52.234;7.444;2023-02-04T14:05:39;9.50;99.90
31661;DHT22;18267;52.234;7.444;2023-02-04T14:08:04;9.50;99.90
31661;DHT22;18267;52.234;7.444;2023-02-04T14:10:30;9.60;99.90
31661;DHT22;18267;52.234;7.444;2023-02-04T14:12:55;9.60;99.90
31661;DHT22;18267;52.234;7.444;2023-02-04T14:15:23;9.50;99.90
31661;DHT22;18267;52.234;7.444;2023-02-04T14:17:48;9.40;99.90
31661;DHT22;18267;52.234;7.444;2023-02-04T14:20:14;9.50;99.90
31661;DHT22;18267;52.234;7.444;2023-02-04T14:22:40;9.50;99.90
31661;DHT22;18267;52.234;7.444;2023-02-04T14:25:06;9.50;99.90
31661;DHT22;18267;52.234;7.444;2023-02-04T14:27:34;9.50;99.90
31661;DHT22;18267;52.234;7.444;2023-02-04T14:29:59;9.50;99.90
31661;DHT22;18267;52.234;7.444;2023-02-04T14:32:25;9.40;99.90
31661;DHT22;18267;52.234;7.444;2023-02-04T14:34:50;9.40;99.90
31661;DHT22;18267;52.234;7.444;2023-02-04T14:37:16;9.40;99.90
31661;DHT22;18267;52.234;7.444;2023-02-04T14:39:41;9.50;99.90
31661;DHT22;18267;52.234;7.444;2023-02-04T14:42:07;9.40;99.90
31661;DHT22;18267;52.234;7.444;2023-02-04T14:44:33;9.40;99.90
31661;DHT22;18267;52.234;7.444;2023-02-04T14:46:58;9.40;99.90
31661;DHT22;18267;52.234;7.444;2023-02-04T14:49:24;9.40;99.90
31661;DHT22;18267;52.234;7.444;2023-02-04T14:51:50;9.40;99.90
31661;DHT22;18267;52.234;7.444;2023-02-04T14:54:15;9.40;99.90
31661;DHT22;18267;52.234;7.444;2023-02-04T14:56:41;9.40;99.90
31661;DHT22;18267;52.234;7.444;2023-02-04T14:59:08;9.40;99.90
31661;DHT22;18267;52.234;7.444;2023-02-04T15:01:34;9.40;99.90
31661;DHT22;18267;52.234;7.444;2023-02-04T15:04:00;9.40;99.90
31661;DHT22;18267;52.234;7.444;2023-02-04T15:06:25;9.40;99.90
31661;DHT22;18267;52.234;7.444;2023-02-04T15:08:51;9.40;99.90
31661;DHT22;18267;52.234;7.444;2023-02-04T15:11:17;9.40;99.90
31661;DHT22;18267;52.234;7.444;2023-02-04T15:13:43;9.50;99.90
31661;DHT22;18267;52.234;7.444;2023-02-04T15:16:08;9.40;99.90
31661;DHT22;18267;52.234;7.444;2023-02-04T15:18:34;9.40;99.90
31661;DHT22;18267;52.234;7.444;2023-02-04T15:21:00;9.40;99.90
31661;DHT22;18267;52.234;7.444;2023-02-04T15:23:26;9.40;99.90
31661;DHT22;18267;52.234;7.444;2023-02-04T15:25:51;9.40;99.90
31661;DHT22;18267;52.234;7.444;2023-02-04T15:28:22;9.30;99.90
31661;DHT22;18267;52.234;7.444;2023-02-04T15:30:47;9.20;99.90
31661;DHT22;18267;52.234;7.444;2023-02-04T15:33:13;9.20;99.90
31661;DHT22;18267;52.234;7.444;2023-02-04T15:35:41;9.20;99.90
31661;DHT22;18267;52.234;7.444;2023-02-04T15:38:06;9.10;99.90
31661;DHT22;18267;52.234;7.444;2023-02-04T15:40:32;9.00;99.90
31661;DHT22;18267;52.234;7.444;2023-02-04T15:42:57;8.90;99.90
31661;DHT22;18267;52.234;7.444;2023-02-04T15:45:23;8.80;99.90
31661;DHT22;18267;52.234;7.444;2023-02-04T15:47:49;8.80;99.90
31661;DHT22;18267;52.234;7.444;2023-02-04T15:50:15;8.80;99.90